createdAt,value
2022-12-09T00:00:54.733Z,1.85714
2022-12-09T00:01:55.104Z,1.85714
2022-12-09T00:02:55.228Z,1.85714
2022-12-09T00:03:55.176Z,1.85714
2022-12-09T00:04:55.099Z,1.78571
2022-12-09T00:05:54.972Z,1.78571
2022-12-09T00:06:54.902Z,1.78571
2022-12-09T00:07:55.256Z,1.78571
2022-12-09T00:08:55.102Z,1.71429
2022-12-09T00:09:55.008Z,1.71429
2022-12-09T00:10:55.117Z,1.71429
2022-12-09T00:11:55.284Z,1.71429
2022-12-09T00:12:55.176Z,1.71429
2022-12-09T00:13:55.216Z,1.71429
2022-12-09T00:14:55.162Z,1.71429
2022-12-09T00:15:55.367Z,1.71429
2022-12-09T00:16:55.333Z,1.71429
2022-12-09T00:17:55.264Z,1.64286
2022-12-09T00:18:55.338Z,1.64286
2022-12-09T00:19:55.338Z,1.64286
2022-12-09T00:20:55.389Z,1.64286
2022-12-09T00:21:55.400Z,1.57143
2022-12-09T00:22:55.637Z,1.57143
2022-12-09T00:23:55.733Z,1.57143
2022-12-09T00:24:55.511Z,1.64286
2022-12-09T00:25:55.534Z,1.64286
2022-12-09T00:26:55.576Z,1.64286
2022-12-09T00:27:55.685Z,1.64286
2022-12-09T00:28:55.642Z,1.64286
2022-12-09T00:29:55.682Z,1.57143
2022-12-09T00:30:55.924Z,1.57143
2022-12-09T00:31:56.045Z,1.57143
2022-12-09T00:32:55.779Z,1.57143
2022-12-09T00:33:55.991Z,1.57143
2022-12-09T00:34:55.836Z,1.5
2022-12-09T00:35:56.031Z,1.5
2022-12-09T00:36:56.106Z,1.5
2022-12-09T00:37:56.182Z,1.5
2022-12-09T00:38:55.958Z,1.5
2022-12-09T00:39:55.994Z,1.42857
2022-12-09T00:40:56.260Z,1.42857
2022-12-09T00:41:56.055Z,1.42857
2022-12-09T00:42:56.258Z,1.42857
2022-12-09T00:43:56.128Z,1.35714
2022-12-09T00:44:56.348Z,1.28571
2022-12-09T00:45:56.533Z,1.28571
2022-12-09T00:46:56.311Z,1.28571
2022-12-09T00:47:56.244Z,1.21429
2022-12-09T00:48:56.305Z,1.21429
2022-12-09T00:49:56.325Z,1.21429
2022-12-09T00:50:56.475Z,1.21429
2022-12-09T00:51:56.608Z,1.21429
2022-12-09T00:52:56.452Z,1.21429
2022-12-09T00:53:56.847Z,1.21429
2022-12-09T00:54:56.702Z,1.21429
2022-12-09T00:55:56.512Z,1.21429
2022-12-09T00:56:56.533Z,1.21429
2022-12-09T00:57:56.877Z,1.21429
2022-12-09T00:58:56.897Z,1.21429
2022-12-09T00:59:56.644Z,1.21429
2022-12-09T01:00:56.799Z,1.28571
2022-12-09T01:01:57.051Z,1.28571
2022-12-09T01:02:56.983Z,1.28571
2022-12-09T01:03:57.057Z,1.35714
2022-12-09T01:04:57.156Z,1.35714
2022-12-09T01:05:56.854Z,1.35714
2022-12-09T01:06:57.152Z,1.42857
2022-12-09T01:07:57.028Z,1.42857
2022-12-09T01:08:57.051Z,1.5
2022-12-09T01:09:57.260Z,1.5
2022-12-09T01:10:57.050Z,1.5
2022-12-09T01:11:57.197Z,1.57143
2022-12-09T01:12:57.196Z,1.57143
2022-12-09T01:13:57.126Z,1.64286
2022-12-09T01:14:57.224Z,1.64286
2022-12-09T01:15:57.305Z,1.64286
2022-12-09T01:16:57.323Z,1.64286
2022-12-09T01:17:57.274Z,1.64286
2022-12-09T01:18:57.311Z,1.64286
2022-12-09T01:19:57.322Z,1.71429
2022-12-09T01:20:57.365Z,1.71429
2022-12-09T01:21:57.647Z,1.78571
2022-12-09T01:22:57.695Z,1.78571
2022-12-09T01:23:57.577Z,1.85714
2022-12-09T01:24:57.502Z,1.85714
2022-12-09T01:25:57.538Z,1.85714
2022-12-09T01:26:57.873Z,1.85714
2022-12-09T01:27:57.591Z,1.85714
2022-12-09T01:28:57.775Z,1.92857
2022-12-09T01:29:57.684Z,1.92857
2022-12-09T01:30:57.808Z,1.92857
2022-12-09T01:31:58.045Z,1.92857
2022-12-09T01:32:58.052Z,1.92857
2022-12-09T01:33:58.082Z,1.92857
2022-12-09T01:34:57.814Z,1.92857
2022-12-09T01:35:57.995Z,1.92857
2022-12-09T01:36:57.918Z,1.92857
2022-12-09T01:37:57.948Z,1.92857
2022-12-09T01:38:58.272Z,2
2022-12-09T01:39:58.159Z,2
2022-12-09T01:40:57.988Z,2
2022-12-09T01:41:58.019Z,2
2022-12-09T01:42:58.050Z,2
2022-12-09T01:43:58.085Z,2
2022-12-09T01:44:58.290Z,2.07143
2022-12-09T01:45:58.158Z,2.07143
2022-12-09T01:46:58.342Z,2.07143
2022-12-09T01:47:58.271Z,2.07143
2022-12-09T01:48:58.584Z,2.07143
2022-12-09T01:49:58.322Z,2.07143
2022-12-09T01:50:58.348Z,2.14286
2022-12-09T01:51:58.640Z,2.07143
2022-12-09T01:52:58.639Z,2.07143
2022-12-09T01:53:58.394Z,2.14286
2022-12-09T01:54:58.478Z,2.14286
2022-12-09T01:55:58.675Z,2.14286
2022-12-09T01:56:58.593Z,2.14286
2022-12-09T01:57:58.767Z,2.07143
2022-12-09T01:58:58.553Z,2.07143
2022-12-09T01:59:58.592Z,2.07143
2022-12-09T02:00:58.640Z,2.07143
2022-12-09T02:01:58.743Z,2.07143
2022-12-09T02:02:58.793Z,2.07143
2022-12-09T02:03:59.044Z,2.07143
2022-12-09T02:04:58.819Z,2.07143
2022-12-09T02:05:58.907Z,2.07143
2022-12-09T02:06:59.177Z,2.07143
2022-12-09T02:07:59.227Z,2.07143
2022-12-09T02:08:58.994Z,2.07143
2022-12-09T02:09:59.247Z,2.07143
2022-12-09T02:10:59.036Z,2.07143
2022-12-09T02:11:59.075Z,2.07143
2022-12-09T02:12:59.325Z,2.07143
2022-12-09T02:13:59.257Z,2.07143
2022-12-09T02:14:59.092Z,2.14286
2022-12-09T02:15:59.166Z,2.14286
2022-12-09T02:16:59.183Z,2.14286
2022-12-09T02:17:59.329Z,2.14286
2022-12-09T02:18:59.448Z,2.21429
2022-12-09T02:19:59.209Z,2.21429
2022-12-09T02:20:59.325Z,2.21429
2022-12-09T02:21:59.421Z,2.28571
2022-12-09T02:22:59.291Z,2.28571
2022-12-09T02:23:59.411Z,2.28571
2022-12-09T02:24:59.348Z,2.28571
2022-12-09T02:25:59.756Z,2.28571
2022-12-09T02:26:59.415Z,2.28571
2022-12-09T02:27:59.834Z,2.28571
2022-12-09T02:28:59.724Z,2.28571
2022-12-09T02:29:59.645Z,2.28571
2022-12-09T02:31:00.016Z,2.28571
2022-12-09T02:31:59.767Z,2.35714
2022-12-09T02:33:00.159Z,2.35714
2022-12-09T02:33:59.928Z,2.35714
2022-12-09T02:34:59.673Z,2.35714
2022-12-09T02:35:59.809Z,2.35714
2022-12-09T02:36:59.739Z,2.35714
2022-12-09T02:38:00.133Z,2.35714
2022-12-09T02:38:59.803Z,2.42857
2022-12-09T02:40:00.084Z,2.35714
2022-12-09T02:41:00.162Z,2.35714
2022-12-09T02:42:00.201Z,2.35714
2022-12-09T02:43:00.153Z,2.28571
2022-12-09T02:44:00.379Z,2.28571
2022-12-09T02:45:00.044Z,2.28571
2022-12-09T02:46:00.501Z,2.28571
2022-12-09T02:47:00.543Z,2.28571
2022-12-09T02:48:00.456Z,2.28571
2022-12-09T02:49:00.351Z,2.28571
2022-12-09T02:50:00.292Z,2.28571
2022-12-09T02:51:00.411Z,2.28571
2022-12-09T02:52:00.583Z,2.28571
2022-12-09T02:53:00.256Z,2.28571
2022-12-09T02:54:00.339Z,2.21429
2022-12-09T02:55:00.327Z,2.21429
2022-12-09T02:56:00.579Z,2.14286
2022-12-09T02:57:00.385Z,2.14286
2022-12-09T02:58:00.684Z,2.07143
2022-12-09T02:59:00.465Z,2.07143
2022-12-09T03:00:00.702Z,2.07143
2022-12-09T03:01:00.628Z,2.07143
2022-12-09T03:02:00.717Z,2.07143
2022-12-09T03:03:00.808Z,2.14286
2022-12-09T03:04:00.713Z,2.07143
2022-12-09T03:05:00.684Z,2.07143
2022-12-09T03:06:00.672Z,2.07143
2022-12-09T03:07:00.703Z,2
2022-12-09T03:08:01.119Z,2
2022-12-09T03:09:01.066Z,2
2022-12-09T03:10:01.112Z,2
2022-12-09T03:11:01.188Z,2
2022-12-09T03:12:00.863Z,1.92857
2022-12-09T03:13:01.070Z,1.92857
2022-12-09T03:14:00.930Z,1.92857
2022-12-09T03:15:00.992Z,1.92857
2022-12-09T03:16:01.085Z,1.92857
2022-12-09T03:17:01.185Z,1.92857
2022-12-09T03:18:01.155Z,1.92857
2022-12-09T03:19:01.283Z,1.92857
2022-12-09T03:20:01.485Z,1.92857
2022-12-09T03:21:01.127Z,1.92857
2022-12-09T03:22:01.166Z,1.92857
2022-12-09T03:23:01.447Z,1.85714
2022-12-09T03:24:01.252Z,1.85714
2022-12-09T03:25:01.268Z,1.85714
2022-12-09T03:26:01.604Z,1.85714
2022-12-09T03:27:01.320Z,1.85714
2022-12-09T03:28:01.420Z,1.85714
2022-12-09T03:29:01.385Z,1.85714
2022-12-09T03:30:01.513Z,1.85714
2022-12-09T03:31:01.510Z,1.85714
2022-12-09T03:32:01.522Z,1.85714
2022-12-09T03:33:01.644Z,1.85714
2022-12-09T03:34:01.582Z,1.85714
2022-12-09T03:35:01.736Z,1.85714
2022-12-09T03:36:01.830Z,1.85714
2022-12-09T03:37:01.886Z,1.85714
2022-12-09T03:38:01.862Z,1.85714
2022-12-09T03:39:01.688Z,1.85714
2022-12-09T03:40:01.732Z,1.85714
2022-12-09T03:41:02.070Z,1.85714
2022-12-09T03:42:01.798Z,1.85714
2022-12-09T03:43:01.812Z,1.85714
2022-12-09T03:44:01.853Z,1.85714
2022-12-09T03:45:02.187Z,1.85714
2022-12-09T03:46:02.104Z,1.92857
2022-12-09T03:47:02.047Z,1.92857
2022-12-09T03:48:02.167Z,1.92857
2022-12-09T03:49:02.025Z,1.92857
2022-12-09T03:50:02.043Z,1.92857
2022-12-09T03:51:02.426Z,1.92857
2022-12-09T03:52:02.396Z,1.92857
2022-12-09T03:53:02.149Z,1.92857
2022-12-09T03:54:02.177Z,2
2022-12-09T03:55:02.381Z,2
2022-12-09T03:56:02.380Z,2
2022-12-09T03:57:02.266Z,2
2022-12-09T03:58:02.316Z,2
2022-12-09T03:59:02.329Z,2
2022-12-09T04:00:02.362Z,2
2022-12-09T04:01:02.866Z,2
2022-12-09T04:02:02.572Z,2
2022-12-09T04:03:02.889Z,2
2022-12-09T04:04:02.623Z,2
2022-12-09T04:05:02.647Z,2
2022-12-09T04:06:03.130Z,2
2022-12-09T04:07:02.614Z,2
2022-12-09T04:08:02.684Z,2
2022-12-09T04:09:03.218Z,2
2022-12-09T04:10:02.674Z,2
2022-12-09T04:11:02.934Z,2
2022-12-09T04:12:02.967Z,2
2022-12-09T04:13:02.748Z,2
2022-12-09T04:14:03.064Z,2
2022-12-09T04:15:02.816Z,2
2022-12-09T04:16:03.213Z,2
2022-12-09T04:17:03.246Z,2
2022-12-09T04:18:03.273Z,2
2022-12-09T04:19:03.317Z,2
2022-12-09T04:20:02.951Z,2
2022-12-09T04:21:02.990Z,2
2022-12-09T04:22:03.053Z,2
2022-12-09T04:23:03.101Z,2
2022-12-09T04:24:03.184Z,2
2022-12-09T04:25:03.117Z,2
2022-12-09T04:26:03.334Z,1.92857
2022-12-09T04:27:03.196Z,2
2022-12-09T04:28:03.561Z,2
2022-12-09T04:29:03.261Z,1.92857
2022-12-09T04:30:03.581Z,1.92857
2022-12-09T04:31:03.663Z,1.92857
2022-12-09T04:32:03.658Z,1.92857
2022-12-09T04:33:03.375Z,1.92857
2022-12-09T04:34:08.960Z,1.92857
2022-12-09T04:35:03.743Z,1.85714
2022-12-09T04:36:03.710Z,1.85714
2022-12-09T04:37:03.857Z,1.85714
2022-12-09T04:38:03.884Z,1.85714
2022-12-09T04:39:03.805Z,1.85714
2022-12-09T04:40:04.219Z,1.85714
2022-12-09T04:41:03.979Z,1.85714
2022-12-09T04:42:04.013Z,1.92857
2022-12-09T04:43:03.895Z,1.92857
2022-12-09T04:44:03.726Z,1.92857
2022-12-09T04:45:03.748Z,2
2022-12-09T04:46:03.840Z,2
2022-12-09T04:47:04.005Z,2
2022-12-09T04:48:03.989Z,2
2022-12-09T04:49:04.005Z,2.07143
2022-12-09T04:50:04.089Z,2.07143
2022-12-09T04:51:04.048Z,2.07143
2022-12-09T04:52:04.049Z,2.07143
2022-12-09T04:53:04.420Z,2.07143
2022-12-09T04:54:04.456Z,2.07143
2022-12-09T04:55:04.070Z,2.07143
2022-12-09T04:56:04.280Z,2.07143
2022-12-09T04:57:04.137Z,2.07143
2022-12-09T04:58:04.482Z,2.07143
2022-12-09T04:59:04.195Z,2.07143
2022-12-09T05:00:04.578Z,2.07143
2022-12-09T05:01:04.668Z,2.07143
2022-12-09T05:02:04.422Z,2.07143
2022-12-09T05:03:04.549Z,2.07143
2022-12-09T05:04:04.685Z,2.07143
2022-12-09T05:05:04.817Z,2.07143
2022-12-09T05:06:04.873Z,2.14286
2022-12-09T05:07:04.797Z,2.14286
2022-12-09T05:08:04.873Z,2.14286
2022-12-09T05:09:04.675Z,2.14286
2022-12-09T05:10:05.142Z,2.14286
2022-12-09T05:11:04.884Z,2.07143
2022-12-09T05:12:04.776Z,2.07143
2022-12-09T05:13:04.965Z,2.07143
2022-12-09T05:14:04.936Z,2.07143
2022-12-09T05:15:04.729Z,2.07143
2022-12-09T05:16:07.804Z,2.07143
2022-12-09T05:17:05.248Z,2.07143
2022-12-09T05:18:05.288Z,2.14286
2022-12-09T05:19:04.956Z,2.14286
2022-12-09T05:20:05.339Z,2.14286
2022-12-09T05:21:05.245Z,2.21429
2022-12-09T05:22:05.310Z,2.21429
2022-12-09T05:23:09.346Z,2.21429
2022-12-09T05:24:05.055Z,2.21429
2022-12-09T05:25:05.200Z,2.28571
2022-12-09T05:26:05.204Z,2.28571
2022-12-09T05:27:05.430Z,2.28571
2022-12-09T05:28:05.236Z,2.35714
2022-12-09T05:29:05.317Z,2.35714
2022-12-09T05:30:05.801Z,2.35714
2022-12-09T05:31:05.640Z,2.42857
2022-12-09T05:32:05.714Z,2.42857
2022-12-09T05:33:05.470Z,2.42857
2022-12-09T05:34:05.408Z,2.42857
2022-12-09T05:35:05.796Z,2.5
2022-12-09T05:36:05.570Z,2.5
2022-12-09T05:37:05.489Z,2.5
2022-12-09T05:38:05.674Z,2.5
2022-12-09T05:39:05.551Z,2.57143
2022-12-09T05:40:06.463Z,2.57143
2022-12-09T05:41:05.969Z,2.57143
2022-12-09T05:42:05.965Z,2.64286
2022-12-09T05:43:05.673Z,2.64286
2022-12-09T05:44:05.768Z,2.64286
2022-12-09T05:45:05.917Z,2.71429
2022-12-09T05:46:05.869Z,2.71429
2022-12-09T05:47:06.055Z,2.71429
2022-12-09T05:48:06.054Z,2.78571
2022-12-09T05:49:06.070Z,2.78571
2022-12-09T05:50:08.176Z,2.78571
2022-12-09T05:51:05.964Z,2.78571
2022-12-09T05:52:06.263Z,2.78571
2022-12-09T05:53:06.243Z,2.85714
2022-12-09T05:54:06.451Z,2.85714
2022-12-09T05:55:06.059Z,2.85714
2022-12-09T05:56:06.611Z,2.85714
2022-12-09T05:57:06.528Z,2.92857
2022-12-09T05:58:06.373Z,2.92857
2022-12-09T05:59:06.158Z,2.92857
2022-12-09T06:00:06.795Z,3
2022-12-09T06:01:06.366Z,3
2022-12-09T06:02:09.899Z,3
2022-12-09T06:03:06.537Z,2.92857
2022-12-09T06:04:06.622Z,3
2022-12-09T06:05:06.963Z,3
2022-12-09T06:06:06.669Z,2.92857
2022-12-09T06:07:06.969Z,2.92857
2022-12-09T06:08:07.342Z,2.92857
2022-12-09T06:09:06.613Z,2.92857
2022-12-09T06:10:06.976Z,3
2022-12-09T06:11:06.630Z,3
2022-12-09T06:12:06.677Z,3
2022-12-09T06:13:06.719Z,3
2022-12-09T06:14:06.613Z,3.07143
2022-12-09T06:15:09.821Z,3.07143
2022-12-09T06:16:06.975Z,3.07143
2022-12-09T06:17:06.875Z,3.14286
2022-12-09T06:18:07.176Z,3.14286
2022-12-09T06:19:06.898Z,3.14286
2022-12-09T06:20:07.248Z,3.14286
2022-12-09T06:21:06.915Z,3.14286
2022-12-09T06:22:07.198Z,3.14286
2022-12-09T06:23:07.225Z,3.21429
2022-12-09T06:24:06.869Z,3.21429
2022-12-09T06:25:06.904Z,3.21429
2022-12-09T06:26:06.989Z,3.21429
2022-12-09T06:27:07.036Z,3.21429
2022-12-09T06:28:07.017Z,3.28571
2022-12-09T06:29:07.091Z,3.28571
2022-12-09T06:30:07.138Z,3.28571
2022-12-09T06:31:07.337Z,3.28571
2022-12-09T06:32:07.270Z,3.28571
2022-12-09T06:33:29.148Z,3.35714
2022-12-09T06:34:07.644Z,3.35714
2022-12-09T06:35:07.607Z,3.35714
2022-12-09T06:36:07.301Z,3.35714
2022-12-09T06:37:07.451Z,3.35714
2022-12-09T06:38:07.511Z,3.35714
2022-12-09T06:39:10.625Z,3.35714
2022-12-09T06:40:07.418Z,3.42857
2022-12-09T06:41:07.611Z,3.42857
2022-12-09T06:42:07.436Z,3.42857
2022-12-09T06:43:07.528Z,3.5
2022-12-09T06:44:07.540Z,3.42857
2022-12-09T06:45:08.075Z,3.42857
2022-12-09T06:46:07.724Z,3.5
2022-12-09T06:47:07.676Z,3.5
2022-12-09T06:48:07.779Z,3.5
2022-12-09T06:49:08.064Z,3.5
2022-12-09T06:50:08.131Z,3.5
2022-12-09T06:51:08.180Z,3.5
2022-12-09T06:52:08.019Z,3.5
2022-12-09T06:53:07.853Z,3.5
2022-12-09T06:54:07.812Z,3.5
2022-12-09T06:55:08.659Z,3.5
2022-12-09T06:56:11.845Z,3.5
2022-12-09T06:57:07.938Z,3.5
2022-12-09T06:58:08.279Z,3.5
2022-12-09T06:59:07.956Z,3.5
2022-12-09T07:00:08.415Z,3.57143
2022-12-09T07:01:08.131Z,3.5
2022-12-09T07:02:08.309Z,3.57143
2022-12-09T07:03:08.384Z,3.57143
2022-12-09T07:04:08.479Z,3.57143
2022-12-09T07:05:08.760Z,3.57143
2022-12-09T07:06:08.615Z,3.57143
2022-12-09T07:07:08.322Z,3.57143
2022-12-09T07:08:08.577Z,3.5
2022-12-09T07:09:08.336Z,3.5
2022-12-09T07:10:08.769Z,3.5
2022-12-09T07:11:08.469Z,3.5
2022-12-09T07:12:08.620Z,3.5
2022-12-09T07:13:08.593Z,3.5
2022-12-09T07:14:08.779Z,3.5
2022-12-09T07:15:09.025Z,3.5
2022-12-09T07:16:08.716Z,3.5
2022-12-09T07:17:08.584Z,3.5
2022-12-09T07:18:08.630Z,3.5
2022-12-09T07:19:08.696Z,3.5
2022-12-09T07:20:08.739Z,3.5
2022-12-09T07:21:08.711Z,3.5
2022-12-09T07:22:08.702Z,3.5
2022-12-09T07:23:08.828Z,3.5
2022-12-09T07:24:08.914Z,3.5
2022-12-09T07:25:09.128Z,3.5
2022-12-09T07:26:08.941Z,3.5
2022-12-09T07:27:12.986Z,3.42857
2022-12-09T07:28:09.108Z,3.42857
2022-12-09T07:29:09.277Z,3.42857
2022-12-09T07:30:08.964Z,3.42857
2022-12-09T07:31:08.905Z,3.5
2022-12-09T07:32:09.253Z,3.42857
2022-12-09T07:33:09.316Z,3.42857
2022-12-09T07:34:09.309Z,3.42857
2022-12-09T07:35:09.951Z,3.42857
2022-12-09T07:36:09.075Z,3.42857
2022-12-09T07:37:09.262Z,3.42857
2022-12-09T07:38:09.224Z,3.42857
2022-12-09T07:39:09.188Z,3.42857
2022-12-09T07:40:09.278Z,3.42857
2022-12-09T07:41:09.482Z,3.5
2022-12-09T07:42:09.484Z,3.5
2022-12-09T07:43:09.511Z,3.5
2022-12-09T07:44:09.414Z,3.5
2022-12-09T07:45:09.760Z,3.5
2022-12-09T07:46:09.380Z,3.5
2022-12-09T07:47:09.965Z,3.57143
2022-12-09T07:48:09.563Z,3.57143
2022-12-09T07:49:10.042Z,3.57143
2022-12-09T07:50:09.851Z,3.5
2022-12-09T07:51:09.697Z,3.5
2022-12-09T07:52:09.743Z,3.5
2022-12-09T07:53:09.956Z,3.42857
2022-12-09T07:54:09.931Z,3.42857
2022-12-09T07:55:10.544Z,3.42857
2022-12-09T07:56:09.931Z,3.42857
2022-12-09T07:57:10.094Z,3.42857
2022-12-09T07:58:10.120Z,3.42857
2022-12-09T07:59:09.811Z,3.42857
2022-12-09T08:00:10.073Z,3.42857
2022-12-09T08:01:10.237Z,3.42857
2022-12-09T08:02:10.116Z,3.42857
2022-12-09T08:03:10.267Z,3.42857
2022-12-09T08:04:10.299Z,3.42857
2022-12-09T08:05:10.549Z,3.42857
2022-12-09T08:06:10.182Z,3.35714
2022-12-09T08:07:10.976Z,3.35714
2022-12-09T08:08:10.368Z,3.28571
2022-12-09T08:09:10.300Z,3.28571
2022-12-09T08:10:10.224Z,3.28571
2022-12-09T08:11:10.297Z,3.28571
2022-12-09T08:12:10.219Z,3.28571
2022-12-09T08:13:10.374Z,3.21429
2022-12-09T08:14:12.552Z,3.28571
2022-12-09T08:15:10.598Z,3.28571
2022-12-09T08:16:10.716Z,3.28571
2022-12-09T08:17:10.467Z,3.28571
2022-12-09T08:18:10.508Z,3.35714
2022-12-09T08:19:10.564Z,3.35714
2022-12-09T08:20:11.074Z,3.35714
2022-12-09T08:21:10.477Z,3.35714
2022-12-09T08:22:10.608Z,3.35714
2022-12-09T08:23:10.563Z,3.35714
2022-12-09T08:24:10.523Z,3.35714
2022-12-09T08:25:11.309Z,3.42857
2022-12-09T08:26:10.713Z,3.42857
2022-12-09T08:27:10.669Z,3.42857
2022-12-09T08:28:11.007Z,3.42857
2022-12-09T08:29:11.037Z,3.42857
2022-12-09T08:30:11.282Z,3.42857
2022-12-09T08:31:11.422Z,3.42857
2022-12-09T08:32:11.262Z,3.5
2022-12-09T08:33:11.120Z,3.5
2022-12-09T08:34:11.103Z,3.5
2022-12-09T08:35:11.143Z,3.5
2022-12-09T08:36:10.929Z,3.5
2022-12-09T08:37:10.988Z,3.5
2022-12-09T08:38:10.839Z,3.5
2022-12-09T08:39:11.037Z,3.5
2022-12-09T08:40:11.327Z,3.5
2022-12-09T08:41:11.212Z,3.5
2022-12-09T08:42:11.068Z,3.5
2022-12-09T08:43:11.472Z,3.5
2022-12-09T08:44:11.234Z,3.5
2022-12-09T08:45:11.335Z,3.57143
2022-12-09T08:46:11.266Z,3.57143
2022-12-09T08:47:11.671Z,3.57143
2022-12-09T08:48:11.297Z,3.57143
2022-12-09T08:49:11.368Z,3.57143
2022-12-09T08:50:11.460Z,3.57143
2022-12-09T08:51:11.440Z,3.64286
2022-12-09T08:52:11.530Z,3.64286
2022-12-09T08:53:11.320Z,3.64286
2022-12-09T08:54:11.420Z,3.64286
2022-12-09T08:55:11.480Z,3.71429
2022-12-09T08:56:11.892Z,3.71429
2022-12-09T08:57:11.813Z,3.71429
2022-12-09T08:58:11.425Z,3.71429
2022-12-09T08:59:11.705Z,3.78571
2022-12-09T09:00:12.223Z,3.78571
2022-12-09T09:01:11.911Z,3.78571
2022-12-09T09:02:11.690Z,3.78571
2022-12-09T09:03:12.132Z,3.78571
2022-12-09T09:04:11.845Z,3.85714
2022-12-09T09:05:11.774Z,3.85714
2022-12-09T09:06:12.241Z,3.85714
2022-12-09T09:07:12.275Z,3.92857
2022-12-09T09:08:11.919Z,3.85714
2022-12-09T09:09:11.926Z,3.85714
2022-12-09T09:10:12.225Z,3.85714
2022-12-09T09:11:12.419Z,3.85714
2022-12-09T09:12:12.061Z,3.85714
2022-12-09T09:13:12.136Z,3.85714
2022-12-09T09:14:12.437Z,3.85714
2022-12-09T09:15:12.698Z,3.85714
2022-12-09T09:16:12.438Z,3.85714
2022-12-09T09:17:12.137Z,3.92857
2022-12-09T09:18:12.562Z,3.92857
2022-12-09T09:19:12.538Z,4
2022-12-09T09:20:12.584Z,4
2022-12-09T09:21:12.464Z,4
2022-12-09T09:22:12.535Z,4
2022-12-09T09:23:12.602Z,4.07143
2022-12-09T09:24:12.794Z,4.07143
2022-12-09T09:25:13.068Z,4.14286
2022-12-09T09:26:12.551Z,4.14286
2022-12-09T09:27:12.846Z,4.14286
2022-12-09T09:28:12.416Z,4.14286
2022-12-09T09:29:12.594Z,4.21429
2022-12-09T09:30:13.135Z,4.21429
2022-12-09T09:31:12.696Z,4.21429
2022-12-09T09:32:12.638Z,4.28571
2022-12-09T09:33:13.047Z,4.28571
2022-12-09T09:34:13.246Z,4.28571
2022-12-09T09:35:12.835Z,4.28571
2022-12-09T09:36:12.913Z,4.35714
2022-12-09T09:37:12.721Z,4.35714
2022-12-09T09:38:12.799Z,4.35714
2022-12-09T09:39:13.157Z,4.35714
2022-12-09T09:40:13.248Z,4.35714
2022-12-09T09:41:13.297Z,4.35714
2022-12-09T09:42:12.841Z,4.35714
2022-12-09T09:43:12.988Z,4.35714
2022-12-09T09:44:12.902Z,4.35714
2022-12-09T09:45:13.224Z,4.35714
2022-12-09T09:46:13.164Z,4.35714
2022-12-09T09:47:13.191Z,4.35714
2022-12-09T09:48:13.451Z,4.35714
2022-12-09T09:49:13.168Z,4.35714
2022-12-09T09:50:13.517Z,4.28571
2022-12-09T09:51:13.120Z,4.28571
2022-12-09T09:52:13.330Z,4.28571
2022-12-09T09:53:13.406Z,4.28571
2022-12-09T09:54:13.289Z,4.28571
2022-12-09T09:55:13.227Z,4.28571
2022-12-09T09:56:13.720Z,4.28571
2022-12-09T09:57:13.353Z,4.28571
2022-12-09T09:58:13.684Z,4.28571
2022-12-09T09:59:13.473Z,4.35714
2022-12-09T10:00:14.316Z,4.35714
2022-12-09T10:01:13.748Z,4.35714
2022-12-09T10:02:13.840Z,4.35714
2022-12-09T10:03:14.090Z,4.35714
2022-12-09T10:04:14.112Z,4.35714
2022-12-09T10:05:14.228Z,4.35714
2022-12-09T10:06:13.902Z,4.35714
2022-12-09T10:07:14.213Z,4.35714
2022-12-09T10:08:13.864Z,4.35714
2022-12-09T10:09:14.209Z,4.35714
2022-12-09T10:10:14.051Z,4.35714
2022-12-09T10:11:14.070Z,4.35714
2022-12-09T10:12:14.344Z,4.42857
2022-12-09T10:13:17.909Z,4.42857
2022-12-09T10:14:14.164Z,4.42857
2022-12-09T10:15:14.363Z,4.5
2022-12-09T10:16:14.344Z,4.5
2022-12-09T10:17:14.162Z,4.57143
2022-12-09T10:18:14.490Z,4.57143
2022-12-09T10:19:14.113Z,4.57143
2022-12-09T10:20:14.313Z,4.57143
2022-12-09T10:21:14.368Z,4.64286
2022-12-09T10:22:14.582Z,4.64286
2022-12-09T10:23:14.591Z,4.57143
2022-12-09T10:24:14.264Z,4.5
2022-12-09T10:25:14.265Z,4.5
2022-12-09T10:26:14.251Z,4.5
2022-12-09T10:27:14.649Z,4.5
2022-12-09T10:28:14.282Z,4.5
2022-12-09T10:29:14.285Z,4.5
2022-12-09T10:30:14.786Z,4.5
2022-12-09T10:31:14.414Z,4.5
2022-12-09T10:32:14.739Z,4.57143
2022-12-09T10:33:14.873Z,4.5
2022-12-09T10:34:14.601Z,4.57143
2022-12-09T10:35:21.782Z,4.57143
2022-12-09T10:36:21.540Z,4.57143
2022-12-09T10:37:21.633Z,4.57143
2022-12-09T10:38:21.614Z,4.57143
2022-12-09T10:39:22.014Z,4.57143
2022-12-09T10:40:22.078Z,4.57143
2022-12-09T10:41:21.725Z,4.57143
2022-12-09T10:42:22.062Z,4.5
2022-12-09T10:43:22.163Z,4.5
2022-12-09T10:44:21.903Z,4.5
2022-12-09T10:45:22.344Z,4.5
2022-12-09T10:46:22.369Z,4.42857
2022-12-09T10:47:22.312Z,4.42857
2022-12-09T10:48:21.991Z,4.42857
2022-12-09T10:49:22.196Z,4.35714
2022-12-09T10:50:22.100Z,4.35714
2022-12-09T10:51:22.736Z,4.35714
2022-12-09T10:52:22.277Z,4.42857
2022-12-09T10:53:22.116Z,4.42857
2022-12-09T10:54:22.284Z,4.42857
2022-12-09T10:55:22.296Z,4.42857
2022-12-09T10:56:22.650Z,4.42857
2022-12-09T10:57:22.227Z,4.35714
2022-12-09T10:58:22.491Z,4.35714
2022-12-09T10:59:22.500Z,4.35714
2022-12-09T11:00:22.831Z,4.35714
2022-12-09T11:01:22.881Z,4.28571
2022-12-09T11:02:22.897Z,4.28571
2022-12-09T11:03:22.519Z,4.28571
2022-12-09T11:04:22.793Z,4.28571
2022-12-09T11:05:22.908Z,4.28571
2022-12-09T11:06:23.216Z,4.28571
2022-12-09T11:07:22.895Z,4.21429
2022-12-09T11:08:23.108Z,4.21429
2022-12-09T11:09:23.252Z,4.21429
2022-12-09T11:10:24.167Z,4.28571
2022-12-09T11:11:22.711Z,4.28571
2022-12-09T11:12:22.731Z,4.28571
2022-12-09T11:13:23.082Z,4.28571
2022-12-09T11:14:23.250Z,4.28571
2022-12-09T11:15:22.742Z,4.28571
2022-12-09T11:16:23.131Z,4.35714
2022-12-09T11:17:22.859Z,4.35714
2022-12-09T11:18:23.096Z,4.42857
2022-12-09T11:19:23.121Z,4.42857
2022-12-09T11:20:23.373Z,4.5
2022-12-09T11:21:23.364Z,4.5
2022-12-09T11:22:23.140Z,4.57143
2022-12-09T11:23:23.117Z,4.64286
2022-12-09T11:24:23.183Z,4.71429
2022-12-09T11:25:23.596Z,4.78571
2022-12-09T11:26:23.153Z,4.78571
2022-12-09T11:27:23.037Z,4.85714
2022-12-09T11:28:23.209Z,4.85714
2022-12-09T11:29:23.495Z,4.92857
2022-12-09T11:30:23.505Z,5
2022-12-09T11:31:33.479Z,5
2022-12-09T11:32:23.900Z,5
2022-12-09T11:33:23.758Z,5.07143
2022-12-09T11:34:24.039Z,5.07143
2022-12-09T11:35:24.093Z,5.07143
2022-12-09T11:36:23.731Z,5.07143
2022-12-09T11:37:23.756Z,5.07143
2022-12-09T11:38:23.786Z,5
2022-12-09T11:39:23.806Z,5
2022-12-09T11:40:23.846Z,5
2022-12-09T11:41:23.879Z,5
2022-12-09T11:42:23.918Z,5
2022-12-09T11:43:23.943Z,4.92857
2022-12-09T11:44:23.980Z,4.92857
2022-12-09T11:45:24.003Z,4.92857
2022-12-09T11:46:24.103Z,4.92857
2022-12-09T11:47:24.061Z,4.92857
2022-12-09T11:48:32.571Z,4.92857
2022-12-09T11:49:24.126Z,4.92857
2022-12-09T11:50:24.285Z,4.92857
2022-12-09T11:51:24.178Z,4.92857
2022-12-09T11:52:24.214Z,4.92857
2022-12-09T11:53:24.247Z,4.92857
2022-12-09T11:54:24.269Z,4.92857
2022-12-09T11:55:24.289Z,4.92857
2022-12-09T11:56:24.324Z,4.92857
2022-12-09T11:57:24.345Z,5
2022-12-09T11:58:24.385Z,5
2022-12-09T11:59:24.411Z,5
2022-12-09T12:00:24.446Z,4.92857
2022-12-09T12:01:24.471Z,4.92857
2022-12-09T12:02:24.575Z,4.92857
2022-12-09T12:03:24.654Z,4.92857
2022-12-09T12:04:24.557Z,4.92857
2022-12-09T12:05:24.585Z,4.92857
2022-12-09T12:06:24.632Z,4.92857
2022-12-09T12:07:24.662Z,4.92857
2022-12-09T12:08:24.837Z,4.85714
2022-12-09T12:09:24.716Z,4.92857
2022-12-09T12:10:24.773Z,4.92857
2022-12-09T12:11:24.801Z,4.92857
2022-12-09T12:12:24.815Z,4.92857
2022-12-09T12:13:24.844Z,5
2022-12-09T12:14:24.876Z,5
2022-12-09T12:15:24.901Z,5
2022-12-09T12:16:24.936Z,5
2022-12-09T12:17:24.992Z,5
2022-12-09T12:18:24.998Z,5
2022-12-09T12:19:25.031Z,4.92857
2022-12-09T12:20:25.056Z,4.92857
2022-12-09T12:21:20.138Z,4.92857
2022-12-09T12:22:19.546Z,4.92857
2022-12-09T12:23:19.794Z,4.92857
2022-12-09T12:24:20.438Z,4.92857
2022-12-09T12:25:20.789Z,4.85714
2022-12-09T12:26:20.595Z,4.92857
2022-12-09T12:27:20.536Z,4.85714
2022-12-09T12:28:21.422Z,4.85714
2022-12-09T12:29:21.460Z,4.78571
2022-12-09T12:30:21.794Z,4.78571
2022-12-09T12:31:22.077Z,4.78571